Time;durP1;ratioP1;P1;durP2;ratioP2;P2;SDS_P1;SDS_P2;PMS_P1;PMS_P2;Temp;Humidity;BMP_temperature;BMP_pressure;BME280_temperature;BME280_humidity;BME280_pressure;Samples;Min_cycle;Max_cycle;Signal;HPM_P1;HPM_P2
2022/09/02 00:00:25;;;;;;;9.33;4.00;;;;;;;12.01;53.09;100901.88;1804665;79;21189;-56
2022/09/02 00:03:33;;;;;;;7.78;4.15;;;;;;;11.96;53.07;100908.40;1804348;79;21216;-55
2022/09/02 00:06:38;;;;;;;11.40;3.72;;;;;;;11.93;53.22;100904.63;1804668;79;21201;-55
2022/09/02 00:09:45;;;;;;;14.15;8.33;;;;;;;11.89;53.27;100904.64;1804096;79;21375;-56
2022/09/02 00:12:50;;;;;;;9.30;3.72;;;;;;;11.85;53.31;100907.37;1804437;79;21275;-56
2022/09/02 00:15:58;;;;;;;8.40;3.85;;;;;;;11.81;53.47;100905.47;1783570;79;21248;-58
2022/09/02 00:19:04;;;;;;;12.28;3.92;;;;;;;11.79;53.55;100910.30;1804266;79;21248;-55
2022/09/02 00:22:11;;;;;;;8.80;3.70;;;;;;;11.75;53.59;100914.90;1804751;79;21288;-55
2022/09/02 00:25:16;;;;;;;6.35;3.33;;;;;;;11.72;53.67;100917.48;1804701;79;21181;-55
2022/09/02 00:28:22;;;;;;;8.15;4.30;;;;;;;11.71;53.85;100916.28;1804724;79;21217;-55
2022/09/02 00:31:32;;;;;;;9.48;4.10;;;;;;;11.68;53.92;100925.72;1802962;79;21168;-55
2022/09/02 00:34:39;;;;;;;5.80;3.40;;;;;;;11.63;54.01;100919.88;1804066;79;21311;-56
2022/09/02 00:37:44;;;;;;;5.90;3.50;;;;;;;11.61;54.11;100923.77;1804721;79;21169;-57
2022/09/02 00:40:54;;;;;;;6.45;4.15;;;;;;;11.57;54.20;100923.27;1804846;79;21401;-55
2022/09/02 00:44:09;;;;;;;7.72;3.90;;;;;;;11.54;54.29;100929.60;1786701;79;21276;-55
2022/09/02 00:47:15;;;;;;;6.53;3.80;;;;;;;11.54;54.43;100929.60;1804987;79;21173;-56
2022/09/02 00:50:24;;;;;;;6.65;3.95;;;;;;;11.51;54.50;100924.45;1805091;79;21205;-56
2022/09/02 00:53:29;;;;;;;8.23;3.83;;;;;;;11.50;54.60;100931.81;1804543;79;21240;-55
2022/09/02 00:56:36;;;;;;;5.78;3.60;;;;;;;11.48;54.64;100944.83;1804003;79;21689;-57
2022/09/02 01:00:00;;;;;;;6.22;3.45;;;;;;;11.47;54.75;100947.73;1788103;79;21189;-56
2022/09/02 01:03:10;;;;;;;8.58;3.72;;;;;;;11.46;54.82;100944.66;1797453;79;21339;-56
2022/09/02 01:06:17;;;;;;;7.17;3.55;;;;;;;11.42;54.89;100944.64;1804775;79;21165;-56
2022/09/02 01:09:23;;;;;;;7.70;4.03;;;;;;;11.34;54.82;100946.85;1804747;79;21185;-56
2022/09/02 01:12:31;;;;;;;6.08;3.80;;;;;;;11.31;54.96;100953.17;1804864;79;21188;-56
2022/09/02 01:15:36;;;;;;;7.67;4.17;;;;;;;11.28;55.14;100954.88;1804771;79;21149;-56
2022/09/02 01:18:43;;;;;;;9.35;3.70;;;;;;;11.24;55.25;100954.34;1785353;79;21216;-56
2022/09/02 01:21:52;;;;;;;7.97;4.33;;;;;;;11.16;55.16;100960.33;1787951;79;21176;-57
2022/09/02 01:24:58;;;;;;;8.88;4.28;;;;;;;11.09;55.15;100962.00;1804834;79;21173;-57
2022/09/02 01:28:10;;;;;;;6.72;3.67;;;;;;;11.03;55.21;100966.28;1804842;79;21358;-56
2022/09/02 01:31:16;;;;;;;8.13;4.25;;;;;;;10.98;55.33;100962.30;1804695;79;21169;-56
2022/09/02 01:34:23;;;;;;;5.90;3.70;;;;;;;10.96;55.43;100962.96;1785877;79;21229;-56
2022/09/02 01:37:31;;;;;;;6.08;4.05;;;;;;;10.93;55.54;100971.52;1804755;79;21267;-55
2022/09/02 01:40:37;;;;;;;11.68;4.45;;;;;;;10.91;55.63;100979.06;1804761;79;21150;-57
2022/09/02 01:43:43;;;;;;;23.80;4.53;;;;;;;10.86;55.68;100979.52;1804755;79;21212;-56
2022/09/02 01:46:50;;;;;;;7.75;3.80;;;;;;;10.84;55.78;100984.83;1786652;79;21232;-58
2022/09/02 01:49:58;;;;;;;10.30;4.28;;;;;;;10.79;55.84;100985.82;1804726;79;21161;-55
2022/09/02 01:53:07;;;;;;;8.45;4.42;;;;;;;10.74;55.86;100988.19;1804798;79;21327;-56
2022/09/02 01:56:15;;;;;;;10.48;4.37;;;;;;;10.69;56.01;100990.58;1804807;79;21157;-56
2022/09/02 01:59:23;;;;;;;8.10;4.47;;;;;;;10.65;56.12;101000.12;1788353;79;21231;-56
2022/09/02 02:02:30;;;;;;;13.75;4.78;;;;;;;10.59;56.09;100998.90;1804750;79;21204;-56
2022/09/02 02:05:38;;;;;;;9.55;4.62;;;;;;;10.53;56.08;101000.88;1804829;79;21220;-56
2022/09/02 02:08:43;;;;;;;13.25;4.85;;;;;;;10.47;56.15;100994.69;1786382;79;21225;-56
2022/09/02 02:11:51;;;;;;;11.22;4.92;;;;;;;10.46;56.36;101006.13;1804714;79;21221;-57
2022/09/02 02:14:57;;;;;;;6.62;3.95;;;;;;;10.44;56.52;101004.09;1804723;79;21216;-56
2022/09/02 02:18:04;;;;;;;9.53;4.47;;;;;;;10.43;56.61;101003.72;1804726;79;21209;-57
2022/09/02 02:21:11;;;;;;;8.23;4.15;;;;;;;10.39;56.61;101007.81;1804142;79;21673;-55
2022/09/02 02:24:17;;;;;;;10.45;4.67;;;;;;;10.31;56.40;101009.61;1787992;79;21197;-56
2022/09/02 02:27:25;;;;;;;8.80;4.53;;;;;;;10.23;56.44;101017.75;1804829;79;21204;-56
2022/09/02 02:30:32;;;;;;;8.45;4.97;;;;;;;10.19;56.57;101024.08;1804723;79;21185;-56
2022/09/02 02:33:37;;;;;;;8.88;5.03;;;;;;;10.17;56.69;101022.49;1804759;79;21184;-55
2022/09/02 02:36:46;;;;;;;9.43;4.92;;;;;;;10.17;56.87;101026.10;1804718;79;21149;-56
2022/09/02 02:39:51;;;;;;;10.48;4.97;;;;;;;10.17;57.02;101026.59;1804713;79;21189;-56
2022/09/02 02:42:58;;;;;;;12.33;4.90;;;;;;;10.17;57.16;101031.58;1804693;79;21217;-57
2022/09/02 02:46:05;;;;;;;8.35;4.85;;;;;;;10.15;57.23;101029.49;1804688;79;21165;-57
2022/09/02 02:49:11;;;;;;;10.70;4.58;;;;;;;10.09;57.06;101041.07;1804658;79;21189;-57
2022/09/02 02:52:18;;;;;;;8.13;4.47;;;;;;;10.04;57.05;101042.51;1804921;79;21177;-56
2022/09/02 02:55:24;;;;;;;7.53;4.20;;;;;;;9.97;57.04;101043.63;1804718;79;21161;-57
2022/09/02 02:58:30;;;;;;;10.15;4.62;;;;;;;9.94;57.20;101045.32;1804673;79;21208;-57
2022/09/02 03:01:38;;;;;;;10.98;4.70;;;;;;;9.92;57.40;101055.58;1804801;79;21346;-57
2022/09/02 03:04:47;;;;;;;7.37;4.05;;;;;;;9.91;57.48;101057.10;1804634;79;21248;-57
2022/09/02 03:07:53;;;;;;;6.37;4.45;;;;;;;9.82;57.36;101054.78;1804432;79;21212;-57
2022/09/02 03:11:01;;;;;;;8.15;4.53;;;;;;;9.75;57.26;101060.50;1804668;79;21196;-57
2022/09/02 03:14:07;;;;;;;8.28;4.15;;;;;;;9.70;57.31;101061.49;1804153;79;21768;-55
2022/09/02 03:17:15;;;;;;;7.25;4.35;;;;;;;9.66;57.39;101064.16;1804099;79;21605;-56
2022/09/02 03:20:20;;;;;;;11.08;5.55;;;;;;;9.66;57.51;101069.62;1803280;79;21201;-56
2022/09/02 03:23:28;;;;;;;16.23;8.75;;;;;;;9.70;57.74;101067.45;1803878;79;21225;-58
2022/09/02 03:26:33;;;;;;;41.10;23.47;;;;;;;9.72;57.81;101077.21;1804026;79;21244;-58
2022/09/02 03:29:39;;;;;;;41.30;24.60;;;;;;;9.70;57.75;101075.16;1803948;79;21231;-58
2022/09/02 03:32:46;;;;;;;48.83;28.07;;;;;;;9.70;57.77;101086.09;1716958;82;21767;-58
2022/09/02 03:35:54;;;;;;;55.70;29.65;;;;;;;9.76;57.98;101088.71;1799407;79;21746;-58
2022/09/02 03:39:00;;;;;;;56.35;28.40;;;;;;;9.82;58.21;101091.69;1803676;79;21196;-58
2022/09/02 03:42:05;;;;;;;42.67;23.57;;;;;;;9.90;58.32;101098.63;1803674;79;21386;-58
2022/09/02 03:45:14;;;;;;;32.78;15.98;;;;;;;9.93;58.38;101098.31;1803926;79;21761;-59
2022/09/02 03:48:22;;;;;;;29.48;16.25;;;;;;;9.96;58.37;101095.77;1804314;79;21256;-59
2022/09/02 03:51:28;;;;;;;29.65;15.70;;;;;;;10.01;58.46;101102.50;1804039;79;21197;-57
2022/09/02 03:54:35;;;;;;;25.85;12.80;;;;;;;10.06;58.54;101111.11;1804669;79;21197;-58
2022/09/02 03:57:42;;;;;;;18.52;10.85;;;;;;;10.13;58.59;101114.13;1804561;79;21213;-58
2022/09/02 04:00:50;;;;;;;20.65;10.15;;;;;;;10.19;58.70;101118.47;1804152;79;21714;-58
2022/09/02 04:03:57;;;;;;;19.95;9.53;;;;;;;10.25;58.71;101120.58;1786326;79;21730;-58
2022/09/02 04:07:04;;;;;;;20.25;9.23;;;;;;;10.30;58.65;101118.73;1804230;79;21181;-58
2022/09/02 04:10:12;;;;;;;17.25;8.38;;;;;;;10.39;58.83;101116.42;1803812;79;21200;-58
2022/09/02 04:13:19;;;;;;;14.87;6.75;;;;;;;10.50;58.97;101125.76;1804079;79;21229;-58
2022/09/02 04:16:29;;;;;;;19.90;7.53;;;;;;;10.61;59.11;101123.31;1804592;79;21228;-58
2022/09/02 04:19:39;;;;;;;17.65;6.78;;;;;;;10.74;59.21;101123.73;1804392;79;21185;-59
2022/09/02 04:22:45;;;;;;;9.05;6.30;;;;;;;10.82;59.21;101126.05;1804564;79;21398;-59
2022/09/02 04:25:51;;;;;;;13.05;6.40;;;;;;;10.91;59.17;101130.55;1804733;79;21732;-57
2022/09/02 04:28:58;;;;;;;13.62;6.20;;;;;;;11.03;59.27;101133.91;1804746;79;21192;-57
2022/09/02 04:32:05;;;;;;;29.90;16.80;;;;;;;11.16;59.35;101137.08;1804824;79;21334;-57
2022/09/02 04:35:12;;;;;;;14.00;5.85;;;;;;;11.28;59.46;101141.26;1804459;79;21752;-58
2022/09/02 04:38:20;;;;;;;8.40;5.17;;;;;;;11.40;59.53;101136.70;1790236;79;21217;-58
2022/09/02 04:41:30;;;;;;;13.45;5.80;;;;;;;11.52;59.56;101145.02;1791490;80;21205;-59
2022/09/02 04:44:38;;;;;;;9.88;5.60;;;;;;;11.63;59.58;101150.75;1791775;80;21316;-58
2022/09/02 04:47:44;;;;;;;12.25;5.28;;;;;;;11.73;59.60;101148.75;1791397;80;21201;-58
2022/09/02 04:50:54;;;;;;;11.05;5.65;;;;;;;11.84;59.62;101157.52;1791862;80;21320;-58
2022/09/02 04:54:01;;;;;;;9.10;5.20;;;;;;;11.95;59.66;101156.39;1766573;80;21196;-58
2022/09/02 04:57:09;;;;;;;13.62;5.20;;;;;;;12.05;59.71;101155.71;1765775;81;21200;-58
2022/09/02 05:00:17;;;;;;;11.12;4.95;;;;;;;12.16;59.73;101156.81;1758413;79;21181;-58
2022/09/02 05:03:25;;;;;;;10.80;5.58;;;;;;;12.26;59.80;101156.13;1760354;80;21209;-58
2022/09/02 05:06:33;;;;;;;17.98;6.22;;;;;;;12.38;59.84;101168.53;1783193;80;21201;-56
2022/09/02 05:09:44;;;;;;;9.18;4.97;;;;;;;12.50;59.92;101174.03;1727441;82;21387;-57
2022/09/02 05:12:55;;;;;;;8.40;4.90;;;;;;;12.63;59.95;101166.67;1707071;82;21227;-58
2022/09/02 05:16:02;;;;;;;12.35;4.87;;;;;;;12.74;59.98;101165.83;1703113;84;21246;-56
2022/09/02 05:19:12;;;;;;;10.25;4.78;;;;;;;12.85;59.97;101176.98;1699727;83;21655;-57
2022/09/02 05:22:18;;;;;;;17.20;5.08;;;;;;;12.96;60.01;101172.02;1703236;84;21175;-57
2022/09/02 05:25:28;;;;;;;7.55;4.47;;;;;;;13.07;60.04;101177.20;1720910;83;21338;-58
2022/09/02 05:28:35;;;;;;;7.00;4.30;;;;;;;13.20;60.10;101178.05;1691015;83;21238;-59
2022/09/02 05:31:45;;;;;;;8.43;5.00;;;;;;;13.32;60.14;101181.64;1730985;83;21806;-58
2022/09/02 05:34:54;;;;;;;6.95;4.10;;;;;;;13.44;60.14;101183.02;1703816;83;21245;-58
2022/09/02 05:38:02;;;;;;;8.55;4.40;;;;;;;13.59;60.21;101190.00;1730046;79;21379;-58
2022/09/02 05:41:14;;;;;;;12.98;4.22;;;;;;;13.74;60.25;101184.12;1733555;83;21228;-58
2022/09/02 05:44:22;;;;;;;7.95;3.77;;;;;;;13.87;60.28;101179.44;1733455;83;21269;-58
2022/09/02 05:47:29;;;;;;;10.72;3.60;;;;;;;14.01;60.30;101193.83;1723356;83;21209;-59
2022/09/02 05:50:36;;;;;;;5.85;3.80;;;;;;;14.12;60.23;101192.06;1732202;82;21252;-59
2022/09/02 05:53:45;;;;;;;6.45;3.67;;;;;;;14.22;60.19;101191.34;1718901;82;21742;-59
2022/09/02 05:56:55;;;;;;;8.40;4.55;;;;;;;14.33;60.16;101192.34;1799442;79;21184;-57
2022/09/02 06:00:06;;;;;;;10.40;4.97;;;;;;;14.43;60.18;101195.20;1803233;79;21252;-58
2022/09/02 06:03:18;;;;;;;10.68;4.95;;;;;;;14.55;60.16;101202.55;1803269;79;21733;-57
2022/09/02 06:06:24;;;;;;;10.45;6.00;;;;;;;14.66;60.17;101200.75;1798105;79;21193;-58
2022/09/02 06:09:31;;;;;;;15.35;6.00;;;;;;;14.78;60.13;101195.14;1799282;79;21181;-58
2022/09/02 06:12:38;;;;;;;15.58;6.53;;;;;;;14.91;60.11;101203.67;1803826;79;21209;-58
2022/09/02 06:15:51;;;;;;;5.92;3.70;;;;;;;15.01;60.10;101198.78;1802871;79;21157;-55
2022/09/02 06:18:58;;;;;;;7.83;3.35;;;;;;;15.14;60.04;101203.67;1802406;79;21212;-55
2022/09/02 06:22:04;;;;;;;8.95;3.33;;;;;;;15.26;59.98;101208.55;1797864;79;21270;-54
2022/09/02 06:25:09;;;;;;;6.58;3.37;;;;;;;15.37;59.91;101215.00;1802105;79;21185;-55
2022/09/02 06:28:16;;;;;;;7.67;3.40;;;;;;;15.46;59.82;101220.81;1803338;79;21757;-56
2022/09/02 06:31:26;;;;;;;8.38;2.90;;;;;;;15.57;59.80;101216.76;1794328;79;21720;-54
2022/09/02 06:34:35;;;;;;;5.62;2.83;;;;;;;15.66;59.74;101223.90;1773279;79;21209;-55
2022/09/02 06:37:41;;;;;;;7.22;2.80;;;;;;;15.74;59.66;101230.20;1771912;81;21205;-54
2022/09/02 06:41:00;;;;;;;5.80;2.60;;;;;;;15.84;59.64;101236.29;1782964;79;21189;-56
2022/09/02 06:44:09;;;;;;;4.25;2.12;;;;;;;15.97;59.47;101240.64;1771249;81;21744;-54
2022/09/02 06:47:15;;;;;;;6.35;2.20;;;;;;;16.06;59.34;101238.11;1771677;80;21189;-54
2022/09/02 06:50:21;;;;;;;3.70;2.00;;;;;;;16.18;59.26;101234.35;1771035;81;21351;-54
2022/09/02 06:53:29;;;;;;;8.28;2.00;;;;;;;16.27;59.16;101240.97;1771882;79;21209;-54
2022/09/02 06:56:42;;;;;;;4.58;2.10;;;;;;;16.36;59.03;101241.19;1711335;82;21208;-54
2022/09/02 06:59:49;;;;;;;5.47;2.00;;;;;;;16.44;58.91;101235.59;1790230;79;21193;-55
2022/09/02 07:06:24;;;;;;;3.02;1.40;;;;;;;16.60;58.70;101234.54;1801866;79;21188;-54
2022/09/02 07:09:33;;;;;;;4.83;1.85;;;;;;;16.71;58.63;101233.16;1802897;79;21240;-53
2022/09/02 07:12:43;;;;;;;2.65;1.60;;;;;;;16.78;58.47;101233.56;1803277;79;21225;-52
2022/09/02 07:15:50;;;;;;;3.33;1.45;;;;;;;16.86;58.32;101240.87;1781886;79;21213;-53
2022/09/02 07:19:00;;;;;;;3.15;1.50;;;;;;;16.91;58.22;101239.25;1772096;81;21224;-54
2022/09/02 07:22:13;;;;;;;3.27;1.62;;;;;;;16.97;58.06;101238.98;1771813;81;21172;-54
2022/09/02 07:25:18;;;;;;;7.90;1.98;;;;;;;17.04;57.95;101237.15;1772612;80;21239;-53
2022/09/02 07:28:25;;;;;;;3.80;1.87;;;;;;;17.11;57.87;101243.08;1772242;81;21358;-55
2022/09/02 07:31:36;;;;;;;4.28;1.62;;;;;;;17.16;57.80;101234.17;1772000;81;21523;-53
2022/09/02 07:34:44;;;;;;;6.30;2.50;;;;;;;17.22;57.76;101229.26;1776578;79;21353;-55
2022/09/02 07:37:52;;;;;;;3.80;1.70;;;;;;;17.31;57.71;101229.44;1804113;79;21185;-54
2022/09/02 07:41:00;;;;;;;3.15;1.60;;;;;;;17.38;57.60;101220.13;1802508;78;21205;-55
2022/09/02 07:44:15;;;;;;;4.62;1.47;;;;;;;17.47;57.49;101224.50;1802778;79;21188;-53
2022/09/02 07:47:23;;;;;;;2.58;1.45;;;;;;;17.55;57.35;101226.28;1771755;81;21602;-54
2022/09/02 07:50:32;;;;;;;2.55;1.50;;;;;;;17.60;57.20;101222.39;1797893;79;21383;-55
2022/09/02 07:53:36;;;;;;;5.25;1.90;;;;;;;17.64;57.04;101216.25;1803438;79;21236;-54
2022/09/02 07:56:42;;;;;;;4.10;1.77;;;;;;;17.66;56.85;101214.11;1787595;79;21826;-55
2022/09/02 07:59:50;;;;;;;7.90;2.15;;;;;;;17.67;56.79;101213.59;1801866;79;21947;-54
2022/09/02 08:02:59;;;;;;;1.92;1.50;;;;;;;17.74;56.75;101215.34;1771030;81;21267;-55
2022/09/02 08:06:10;;;;;;;2.22;1.40;;;;;;;17.83;56.64;101222.46;1788155;79;21176;-60
2022/09/02 08:09:19;;;;;;;3.40;1.70;;;;;;;17.89;56.45;101211.08;1787651;79;21722;-55
2022/09/02 08:12:25;;;;;;;2.80;1.40;;;;;;;17.93;56.32;101216.56;1799276;79;21204;-55
2022/09/02 08:15:34;;;;;;;5.83;1.70;;;;;;;18.01;56.24;101212.25;1779382;79;21245;-55
2022/09/02 08:18:58;;;;;;;3.83;1.50;;;;;;;18.07;56.09;101208.65;1798290;79;21381;-56
2022/09/02 08:22:06;;;;;;;3.85;1.77;;;;;;;18.16;56.02;101203.25;1770677;81;21188;-55
2022/09/02 08:25:13;;;;;;;4.83;1.60;;;;;;;18.22;55.90;101200.20;1770859;80;21204;-53
2022/09/02 08:28:20;;;;;;;4.47;1.50;;;;;;;18.29;55.75;101193.63;1774888;79;21210;-53
2022/09/02 08:31:26;;;;;;;4.05;1.37;;;;;;;18.39;55.66;101209.39;1733562;82;21288;-52
2022/09/02 08:34:31;;;;;;;4.95;1.95;;;;;;;18.47;55.43;101199.48;1770836;80;21185;-54
2022/09/02 08:37:37;;;;;;;2.58;1.45;;;;;;;18.45;55.20;101207.69;1736503;81;21782;-54
2022/09/02 08:40:47;;;;;;;5.85;1.30;;;;;;;18.42;55.09;101200.66;1791866;79;21201;-54
2022/09/02 08:43:52;;;;;;;4.37;1.20;;;;;;;18.48;54.97;101206.76;1734532;82;21272;-55
2022/09/02 08:47:02;;;;;;;3.77;1.10;;;;;;;18.57;54.84;101204.12;1730935;82;21252;-53
2022/09/02 08:50:17;;;;;;;3.62;1.30;;;;;;;18.63;54.65;101199.12;1798921;79;21240;-51
2022/09/02 08:53:45;;;;;;;4.30;1.35;;;;;;;18.68;54.57;101195.19;1802572;79;21523;-53
2022/09/02 08:56:51;;;;;;;6.58;1.32;;;;;;;18.75;54.36;101197.47;1802345;79;21185;-55
2022/09/02 08:59:57;;;;;;;7.83;1.27;;;;;;;18.82;54.11;101208.03;1769012;81;21244;-54
2022/09/02 09:03:24;;;;;;;3.00;0.90;;;;;;;18.87;53.87;101206.87;1770816;80;21272;-54
2022/09/02 09:06:42;;;;;;;2.98;0.90;;;;;;;18.92;53.77;101196.01;1779553;79;21770;-55
2022/09/02 09:10:18;;;;;;;2.50;1.15;;;;;;;18.99;53.57;101192.73;1770113;81;21581;-56
2022/09/02 09:13:38;;;;;;;3.62;1.22;;;;;;;19.05;53.42;101202.11;1770027;79;21224;-55
2022/09/02 09:17:01;;;;;;;4.62;1.25;;;;;;;19.09;53.26;101203.42;1736703;82;21192;-55
2022/09/02 09:20:14;;;;;;;5.22;1.35;;;;;;;19.12;53.10;101194.67;1731495;82;21202;-56
2022/09/02 09:23:38;;;;;;;2.22;1.30;;;;;;;19.19;52.92;101199.15;1705866;83;22060;-56
2022/09/02 09:26:46;;;;;;;2.98;1.32;;;;;;;19.26;52.77;101190.83;1733012;81;21559;-56
2022/09/02 09:29:52;;;;;;;4.83;2.08;;;;;;;19.33;52.59;101193.65;1740719;82;21269;-56
2022/09/02 09:33:04;;;;;;;4.47;1.82;;;;;;;19.44;52.45;101190.23;1735021;82;21237;-56
2022/09/02 09:36:10;;;;;;;2.37;1.20;;;;;;;19.52;52.33;101192.24;1801967;79;21177;-58
2022/09/02 09:39:37;;;;;;;2.67;1.30;;;;;;;19.58;52.09;101191.94;1803307;79;21209;-54
2022/09/02 09:42:45;;;;;;;2.08;1.35;;;;;;;19.56;51.86;101178.78;1802542;79;21813;-56
2022/09/02 09:45:55;;;;;;;5.90;1.55;;;;;;;19.64;51.74;101184.12;1803983;79;21339;-56
2022/09/02 09:49:02;;;;;;;3.52;1.70;;;;;;;19.73;51.57;101188.38;1800088;79;21784;-56
2022/09/02 09:52:11;;;;;;;6.08;1.40;;;;;;;19.87;51.49;101181.20;1786153;79;21184;-56
2022/09/02 09:55:27;;;;;;;2.35;1.50;;;;;;;19.96;51.30;101170.71;1781298;79;21196;-57
2022/09/02 09:58:39;;;;;;;4.37;1.60;;;;;;;20.02;51.02;101175.39;1793478;79;21193;-55
2022/09/02 10:01:45;;;;;;;4.33;1.70;;;;;;;20.08;50.83;101176.77;1771696;79;21205;-57
2022/09/02 10:04:51;;;;;;;4.92;1.67;;;;;;;20.18;50.70;101177.21;1758771;81;21209;-55
2022/09/02 10:08:13;;;;;;;3.67;1.85;;;;;;;20.28;50.55;101190.09;1802848;79;21197;-56
2022/09/02 10:11:32;;;;;;;3.85;1.50;;;;;;;20.29;50.26;101192.34;1800767;79;21569;-55
2022/09/02 10:14:52;;;;;;;2.12;1.42;;;;;;;20.21;50.11;101184.25;1800832;79;21242;-55
2022/09/02 10:18:35;;;;;;;3.47;1.22;;;;;;;20.23;49.95;101179.33;1771952;81;21406;-55
2022/09/02 10:22:14;;;;;;;3.67;1.35;;;;;;;20.27;49.80;101190.31;1771448;81;21829;-53
2022/09/02 10:26:01;;;;;;;4.37;1.12;;;;;;;20.39;49.71;101184.41;1785722;79;21220;-54
2022/09/02 10:29:23;;;;;;;3.45;1.57;;;;;;;20.46;49.49;101193.56;1778742;79;21175;-54
2022/09/02 10:32:52;;;;;;;6.22;1.47;;;;;;;20.45;49.20;101201.60;1789744;79;21174;-54
2022/09/02 10:36:16;;;;;;;3.92;1.37;;;;;;;20.44;49.11;101195.70;1793905;79;21188;-53
2022/09/02 10:39:59;;;;;;;4.57;1.30;;;;;;;20.46;48.91;101189.39;1736216;82;21828;-54
2022/09/02 10:43:17;;;;;;;4.67;1.15;;;;;;;20.58;48.79;101184.86;1786694;79;21457;-55
2022/09/02 10:46:26;;;;;;;3.10;1.17;;;;;;;20.72;48.58;101191.50;1796074;79;21793;-55
2022/09/02 10:50:21;;;;;;;2.20;0.80;;;;;;;20.78;48.35;101189.77;1786935;79;21177;-54
2022/09/02 10:54:10;;;;;;;3.02;1.20;;;;;;;20.71;48.07;101187.55;1772242;81;21259;-56
2022/09/02 10:57:30;;;;;;;2.90;1.37;;;;;;;20.65;47.89;101184.27;1784322;79;21216;-58
2022/09/02 11:00:36;;;;;;;1.65;1.00;;;;;;;20.82;47.84;101186.84;1784352;79;21682;-56
2022/09/02 11:04:01;;;;;;;3.47;1.10;;;;;;;21.00;47.71;101192.56;1800352;79;21844;-57
2022/09/02 11:07:07;;;;;;;3.83;1.07;;;;;;;21.13;47.47;101191.08;1802041;79;21824;-56
2022/09/02 11:10:33;;;;;;;5.33;1.02;;;;;;;21.21;47.34;101185.24;1786483;79;21621;-56
2022/09/02 11:14:04;;;;;;;3.52;0.95;;;;;;;21.40;47.31;101187.02;1803769;79;21224;-56
2022/09/02 11:17:25;;;;;;;2.95;1.00;;;;;;;21.59;47.18;101173.45;1799089;79;21235;-56
2022/09/02 11:20:55;;;;;;;1.60;1.00;;;;;;;21.91;46.90;101178.43;1874436;76;22196;-54
2022/09/02 11:28:45;;;;;;;9.43;1.22;;;;;;;22.03;46.32;101185.80;1704901;80;21235;-55
2022/09/02 11:32:00;;;;;;;1.10;0.80;;;;;;;22.10;46.09;101183.77;1772293;79;21208;-57
2022/09/02 11:35:14;;;;;;;14.00;7.95;;;;;;;22.08;45.74;101190.15;1721114;81;21181;-58
2022/09/02 11:38:39;;;;;;;3.77;1.37;;;;;;;22.06;45.63;101183.94;1706018;82;21212;-54
2022/09/02 11:42:09;;;;;;;3.12;1.32;;;;;;;22.18;45.49;101177.89;1702842;82;21256;-56
2022/09/02 11:45:54;;;;;;;2.05;0.85;;;;;;;22.31;45.24;101177.45;1725052;82;21875;-55
2022/09/02 11:49:25;;;;;;;4.90;1.40;;;;;;;22.40;45.01;101178.30;1781133;79;21236;-56
2022/09/02 11:53:06;;;;;;;1.57;1.10;;;;;;;22.47;44.74;101178.21;1783337;79;21236;-57
2022/09/02 11:56:34;;;;;;;3.42;0.90;;;;;;;22.42;44.45;101175.27;1712048;83;21221;-57
2022/09/02 12:00:09;;;;;;;3.40;2.00;;;;;;;22.32;44.23;101173.02;1774146;80;21565;-56
2022/09/02 12:03:20;;;;;;;2.35;1.20;;;;;;;22.41;44.23;101163.77;1774269;79;21169;-53
2022/09/02 12:06:29;;;;;;;2.25;1.02;;;;;;;22.52;43.99;101163.88;1756661;80;21191;-53
2022/09/02 12:09:55;;;;;;;2.72;0.88;;;;;;;22.56;43.73;101160.95;1777679;79;21785;-55
2022/09/02 12:13:07;;;;;;;4.75;0.90;;;;;;;22.53;43.42;101154.97;1765619;80;21206;-53
2022/09/02 12:16:26;;;;;;;4.20;1.40;;;;;;;22.54;43.23;101163.64;1766122;81;21723;-53
2022/09/02 12:19:34;;;;;;;3.42;0.90;;;;;;;22.50;42.96;101153.45;1766222;81;21729;-54
2022/09/02 12:22:43;;;;;;;2.05;1.00;;;;;;;22.39;42.69;101166.80;1768154;80;21736;-53
2022/09/02 12:25:55;;;;;;;4.45;0.80;;;;;;;22.25;42.47;101160.25;1761914;80;21304;-53
2022/09/02 12:29:31;;;;;;;2.33;0.88;;;;;;;22.09;42.29;101155.58;1748849;81;21224;-52
2022/09/02 12:32:59;;;;;;;2.25;1.17;;;;;;;22.04;42.19;101158.78;1760339;80;21817;-54
2022/09/02 12:36:13;;;;;;;4.97;1.00;;;;;;;21.90;41.97;101154.40;1757091;80;21757;-57
2022/09/02 12:39:41;;;;;;;2.37;1.07;;;;;;;21.77;41.86;101172.68;1757721;81;21318;-54
2022/09/02 12:43:04;;;;;;;2.85;1.02;;;;;;;21.67;41.68;101159.23;1757601;81;21290;-53
2022/09/02 12:46:52;;;;;;;5.05;1.10;;;;;;;21.69;41.65;101157.05;1706558;82;22010;-52
2022/09/02 12:50:14;;;;;;;5.15;0.93;;;;;;;21.71;41.47;101152.11;1720544;82;21801;-53
2022/09/02 12:53:37;;;;;;;1.45;0.80;;;;;;;21.67;41.17;101154.19;1775195;80;21228;-53
2022/09/02 12:56:47;;;;;;;3.22;1.35;;;;;;;21.55;41.02;101144.33;1788171;80;21240;-53
2022/09/02 12:59:46;;;;;;;5.00;1.35;;;;;;;21.56;40.93;101151.63;1697073;83;21265;-58
2022/09/02 13:03:21;;;;;;;3.02;1.05;;;;;;;21.63;40.87;101151.53;1731036;83;21198;-53
2022/09/02 13:06:36;;;;;;;2.90;1.20;;;;;;;21.61;40.63;101157.91;1704505;84;21193;-55
2022/09/02 13:10:01;;;;;;;2.27;1.30;;;;;;;21.53;40.47;101153.45;1788120;80;21165;-55
2022/09/02 13:13:51;;;;;;;2.20;1.30;;;;;;;21.50;40.31;101152.52;1788247;80;21765;-57
2022/09/02 13:17:20;;;;;;;2.58;1.05;;;;;;;21.48;40.22;101153.30;1678982;84;21383;-55
2022/09/02 13:21:10;;;;;;;3.40;1.10;;;;;;;21.45;40.05;101141.75;1766710;80;21192;-55
2022/09/02 13:24:25;;;;;;;1.75;1.12;;;;;;;21.47;39.94;101146.01;1771187;80;21585;-57
2022/09/02 13:28:08;;;;;;;2.92;1.30;;;;;;;21.42;39.76;101144.44;1788310;80;21212;-48
2022/09/02 13:31:32;;;;;;;2.55;0.95;;;;;;;21.34;39.51;101140.58;1779127;79;21192;-56
2022/09/02 13:34:40;;;;;;;3.45;0.93;;;;;;;21.30;39.36;101140.70;1770533;80;21710;-55
2022/09/02 13:37:49;;;;;;;3.35;1.30;;;;;;;21.30;39.34;101145.41;1771166;79;21275;-55
2022/09/02 13:40:54;;;;;;;2.37;1.22;;;;;;;21.32;39.22;101139.95;1771477;80;21283;-55
2022/09/02 13:44:15;;;;;;;2.17;1.00;;;;;;;21.37;39.22;101137.86;1775272;79;21236;-56
2022/09/02 13:47:26;;;;;;;3.62;1.12;;;;;;;21.42;39.16;101136.08;1778952;80;21215;-59
2022/09/02 13:50:34;;;;;;;2.30;1.00;;;;;;;21.41;38.98;101134.39;1792605;79;21184;-60
2022/09/02 13:53:45;;;;;;;2.77;1.40;;;;;;;21.36;38.86;101138.39;1792139;80;21766;-59
2022/09/02 13:56:53;;;;;;;3.72;1.30;;;;;;;21.38;38.84;101144.59;1797628;79;21185;-58
2022/09/02 14:00:01;;;;;;;4.28;1.27;;;;;;;21.38;38.79;101151.56;1791129;80;21172;-57
2022/09/02 14:03:22;;;;;;;2.47;1.20;;;;;;;21.36;38.67;101142.57;1753627;80;22003;-58
2022/09/02 14:06:36;;;;;;;1.50;1.05;;;;;;;21.37;38.62;101149.88;1765770;81;21181;-57
2022/09/02 14:09:45;;;;;;;2.45;1.20;;;;;;;21.34;38.49;101146.15;1767906;79;21884;-58
2022/09/02 14:12:50;;;;;;;3.15;1.55;;;;;;;21.30;38.39;101150.45;1753458;80;21223;-56
2022/09/02 14:15:58;;;;;;;2.37;1.15;;;;;;;21.35;38.38;101145.06;1771067;80;21169;-57
2022/09/02 14:19:15;;;;;;;4.42;1.40;;;;;;;21.36;38.25;101137.00;1771274;80;21213;-55
2022/09/02 14:22:34;;;;;;;3.92;1.45;;;;;;;21.39;38.21;101135.15;1771793;80;21292;-55
2022/09/02 14:25:44;;;;;;;2.55;1.52;;;;;;;21.42;38.12;101133.30;1769585;79;21192;-55
2022/09/02 14:28:53;;;;;;;1.60;1.12;;;;;;;21.41;38.09;101137.17;1774739;80;21177;-55
2022/09/02 14:32:20;;;;;;;3.62;1.50;;;;;;;21.42;37.96;101143.61;1776200;80;21189;-55
2022/09/02 14:35:28;;;;;;;1.98;1.20;;;;;;;21.38;37.83;101145.99;1789953;80;21185;-55
2022/09/02 14:38:46;;;;;;;3.30;1.55;;;;;;;21.34;37.69;101143.36;1765694;80;21247;-55
2022/09/02 14:41:56;;;;;;;2.80;1.37;;;;;;;21.27;37.63;101148.13;1769725;79;21248;-56
2022/09/02 14:45:07;;;;;;;1.87;1.50;;;;;;;21.23;37.54;101146.02;1791503;80;21585;-56
2022/09/02 14:48:21;;;;;;;1.77;1.20;;;;;;;21.21;37.54;101137.03;1721989;83;21280;-55
2022/09/02 14:51:27;;;;;;;5.80;1.42;;;;;;;21.22;37.54;101147.08;1727631;83;21292;-55
2022/09/02 14:54:51;;;;;;;6.75;1.65;;;;;;;21.18;37.46;101136.09;1727081;83;21228;-56
2022/09/02 14:58:01;;;;;;;3.20;1.30;;;;;;;21.15;37.45;101138.81;1726945;83;21220;-55
2022/09/02 15:01:10;;;;;;;2.98;1.30;;;;;;;21.11;37.39;101136.14;1721685;83;21761;-56